sensor_id;sensor_type;location;lat;lon;timestamp;pressure;altitude;pressure_sealevel;temperature;humidity
68994;BME280;56054;50.968;5.816;2023-07-13T00:01:11;100704.63;;;18.05;72.20
68994;BME280;56054;50.968;5.816;2023-07-13T00:04:20;100704.78;;;18.09;71.76
68994;BME280;56054;50.968;5.816;2023-07-13T00:07:28;100709.41;;;17.91;72.38
68994;BME280;56054;50.968;5.816;2023-07-13T00:10:39;100700.03;;;17.99;72.74
68994;BME280;56054;50.968;5.816;2023-07-13T00:13:47;100698.66;;;17.83;73.84
68994;BME280;56054;50.968;5.816;2023-07-13T00:16:54;100706.31;;;18.03;73.28
68994;BME280;56054;50.968;5.816;2023-07-13T00:20:02;100705.78;;;17.87;74.93
68994;BME280;56054;50.968;5.816;2023-07-13T00:23:10;100698.84;;;17.89;75.20
68994;BME280;56054;50.968;5.816;2023-07-13T00:26:17;100702.41;;;17.91;75.02
68994;BME280;56054;50.968;5.816;2023-07-13T00:29:26;100701.66;;;17.70;76.65
68994;BME280;56054;50.968;5.816;2023-07-13T00:32:33;100694.50;;;17.90;75.00
68994;BME280;56054;50.968;5.816;2023-07-13T00:35:40;100704.09;;;18.16;73.71
68994;BME280;56054;50.968;5.816;2023-07-13T00:38:47;100715.66;;;17.94;74.27
68994;BME280;56054;50.968;5.816;2023-07-13T00:41:54;100701.47;;;17.89;74.46
68994;BME280;56054;50.968;5.816;2023-07-13T00:48:34;100701.97;;;17.79;75.25
68994;BME280;56054;50.968;5.816;2023-07-13T00:51:45;100701.88;;;17.76;74.98
68994;BME280;56054;50.968;5.816;2023-07-13T00:54:54;100711.75;;;17.58;75.80
68994;BME280;56054;50.968;5.816;2023-07-13T00:58:05;100704.78;;;17.58;75.87
68994;BME280;56054;50.968;5.816;2023-07-13T01:01:13;100705.16;;;17.69;75.44
68994;BME280;56054;50.968;5.816;2023-07-13T01:04:20;100706.84;;;17.41;77.23
68994;BME280;56054;50.968;5.816;2023-07-13T01:07:27;100694.69;;;17.45;76.77
68994;BME280;56054;50.968;5.816;2023-07-13T01:10:34;100702.41;;;17.40;77.26
68994;BME280;56054;50.968;5.816;2023-07-13T01:13:41;100702.47;;;17.42;77.20
68994;BME280;56054;50.968;5.816;2023-07-13T01:16:49;100704.84;;;17.60;76.73
68994;BME280;56054;50.968;5.816;2023-07-13T01:19:57;100712.53;;;17.53;76.81
68994;BME280;56054;50.968;5.816;2023-07-13T01:23:06;100706.28;;;17.26;79.37
68994;BME280;56054;50.968;5.816;2023-07-13T01:26:13;100697.94;;;17.38;78.90
68994;BME280;56054;50.968;5.816;2023-07-13T01:29:23;100694.59;;;17.42;79.94
68994;BME280;56054;50.968;5.816;2023-07-13T01:32:30;100697.94;;;17.38;81.14
68994;BME280;56054;50.968;5.816;2023-07-13T01:35:37;100703.09;;;17.35;81.71
68994;BME280;56054;50.968;5.816;2023-07-13T01:38:44;100694.69;;;17.45;80.87
68994;BME280;56054;50.968;5.816;2023-07-13T01:41:51;100695.84;;;17.27;80.96
68994;BME280;56054;50.968;5.816;2023-07-13T01:44:58;100697.16;;;17.15;81.60
68994;BME280;56054;50.968;5.816;2023-07-13T01:48:05;100704.16;;;17.16;80.92
68994;BME280;56054;50.968;5.816;2023-07-13T01:51:12;100703.56;;;17.23;80.50
68994;BME280;56054;50.968;5.816;2023-07-13T01:54:19;100705.94;;;17.17;80.67
68994;BME280;56054;50.968;5.816;2023-07-13T01:57:26;100704.00;;;17.11;81.02
68994;BME280;56054;50.968;5.816;2023-07-13T02:00:33;100701.09;;;17.03;81.71
68994;BME280;56054;50.968;5.816;2023-07-13T02:03:40;100712.75;;;17.11;81.72
68994;BME280;56054;50.968;5.816;2023-07-13T02:06:47;100704.59;;;17.02;82.49
68994;BME280;56054;50.968;5.816;2023-07-13T02:09:54;100702.13;;;17.07;82.67
68994;BME280;56054;50.968;5.816;2023-07-13T02:13:01;100701.16;;;17.29;81.58
68994;BME280;56054;50.968;5.816;2023-07-13T02:16:08;100707.19;;;17.02;83.44
68994;BME280;56054;50.968;5.816;2023-07-13T02:19:15;100716.84;;;17.03;83.58
68994;BME280;56054;50.968;5.816;2023-07-13T02:22:22;100709.34;;;17.14;83.35
68994;BME280;56054;50.968;5.816;2023-07-13T02:25:31;100710.53;;;16.98;84.16
68994;BME280;56054;50.968;5.816;2023-07-13T02:28:38;100707.03;;;16.98;84.46
68994;BME280;56054;50.968;5.816;2023-07-13T02:31:46;100711.22;;;16.93;85.15
68994;BME280;56054;50.968;5.816;2023-07-13T02:34:53;100717.53;;;16.98;84.98
68994;BME280;56054;50.968;5.816;2023-07-13T02:38:00;100719.63;;;16.84;85.81
68994;BME280;56054;50.968;5.816;2023-07-13T02:41:07;100721.38;;;16.83;86.19
68994;BME280;56054;50.968;5.816;2023-07-13T02:44:15;100724.78;;;17.05;84.94
68994;BME280;56054;50.968;5.816;2023-07-13T02:47:22;100725.84;;;16.86;86.21
68994;BME280;56054;50.968;5.816;2023-07-13T02:50:29;100722.44;;;16.88;86.29
68994;BME280;56054;50.968;5.816;2023-07-13T02:53:36;100716.06;;;16.82;86.92
68994;BME280;56054;50.968;5.816;2023-07-13T02:56:43;100718.44;;;16.76;87.45
68994;BME280;56054;50.968;5.816;2023-07-13T02:59:52;100720.41;;;16.81;86.72
68994;BME280;56054;50.968;5.816;2023-07-13T03:02:59;100727.31;;;16.79;87.29
68994;BME280;56054;50.968;5.816;2023-07-13T03:06:06;100722.34;;;16.64;88.49
68994;BME280;56054;50.968;5.816;2023-07-13T03:09:20;100734.78;;;16.68;88.34
68994;BME280;56054;50.968;5.816;2023-07-13T03:12:28;100736.19;;;16.60;88.99
68994;BME280;56054;50.968;5.816;2023-07-13T03:15:37;100731.38;;;16.48;90.10
68994;BME280;56054;50.968;5.816;2023-07-13T03:18:45;100736.44;;;16.66;89.06
68994;BME280;56054;50.968;5.816;2023-07-13T03:21:53;100736.97;;;16.58;89.32
68994;BME280;56054;50.968;5.816;2023-07-13T03:25:00;100734.81;;;16.70;88.75
68994;BME280;56054;50.968;5.816;2023-07-13T03:28:07;100737.41;;;16.46;90.06
68994;BME280;56054;50.968;5.816;2023-07-13T03:31:18;100737.16;;;16.40;90.80
68994;BME280;56054;50.968;5.816;2023-07-13T03:34:25;100748.38;;;16.58;90.06
68994;BME280;56054;50.968;5.816;2023-07-13T03:37:32;100747.03;;;16.47;90.89
68994;BME280;56054;50.968;5.816;2023-07-13T03:40:39;100755.28;;;16.56;90.39
68994;BME280;56054;50.968;5.816;2023-07-13T03:43:46;100757.06;;;16.57;90.57
68994;BME280;56054;50.968;5.816;2023-07-13T03:46:55;100755.88;;;16.49;91.35
68994;BME280;56054;50.968;5.816;2023-07-13T03:50:03;100753.78;;;16.40;92.22
68994;BME280;56054;50.968;5.816;2023-07-13T03:53:10;100754.03;;;16.46;91.83
68994;BME280;56054;50.968;5.816;2023-07-13T03:56:18;100753.47;;;16.55;92.21
68994;BME280;56054;50.968;5.816;2023-07-13T03:59:25;100757.44;;;16.44;93.17
68994;BME280;56054;50.968;5.816;2023-07-13T04:02:33;100755.63;;;16.43;93.31
68994;BME280;56054;50.968;5.816;2023-07-13T04:05:40;100761.91;;;16.46;93.16
68994;BME280;56054;50.968;5.816;2023-07-13T04:08:52;100760.50;;;16.34;93.98
68994;BME280;56054;50.968;5.816;2023-07-13T04:11:59;100763.44;;;16.41;94.26
68994;BME280;56054;50.968;5.816;2023-07-13T04:15:06;100765.16;;;16.41;94.15
68994;BME280;56054;50.968;5.816;2023-07-13T04:18:14;100764.34;;;16.42;94.59
68994;BME280;56054;50.968;5.816;2023-07-13T04:21:21;100764.13;;;16.58;93.69
68994;BME280;56054;50.968;5.816;2023-07-13T04:24:28;100766.84;;;16.39;95.02
68994;BME280;56054;50.968;5.816;2023-07-13T04:27:42;100765.28;;;16.44;95.29
68994;BME280;56054;50.968;5.816;2023-07-13T04:30:50;100767.50;;;16.56;94.62
68994;BME280;56054;50.968;5.816;2023-07-13T04:33:57;100777.66;;;16.48;95.12
68994;BME280;56054;50.968;5.816;2023-07-13T04:37:04;100777.16;;;16.57;95.06
68994;BME280;56054;50.968;5.816;2023-07-13T04:40:11;100783.66;;;16.66;94.75
68994;BME280;56054;50.968;5.816;2023-07-13T04:43:18;100791.53;;;16.66;95.19
68994;BME280;56054;50.968;5.816;2023-07-13T04:46:25;100794.53;;;16.76;94.65
68994;BME280;56054;50.968;5.816;2023-07-13T04:49:32;100787.34;;;16.72;94.84
68994;BME280;56054;50.968;5.816;2023-07-13T04:52:39;100794.38;;;16.73;95.27
68994;BME280;56054;50.968;5.816;2023-07-13T04:55:46;100788.63;;;16.81;94.40
68994;BME280;56054;50.968;5.816;2023-07-13T04:58:53;100787.88;;;16.84;94.65
68994;BME280;56054;50.968;5.816;2023-07-13T05:02:00;100788.19;;;16.71;95.43
68994;BME280;56054;50.968;5.816;2023-07-13T05:05:07;100794.66;;;16.79;95.22
68994;BME280;56054;50.968;5.816;2023-07-13T05:08:14;100798.47;;;16.87;94.54
68994;BME280;56054;50.968;5.816;2023-07-13T05:11:21;100809.94;;;16.89;94.62
68994;BME280;56054;50.968;5.816;2023-07-13T05:14:28;100804.06;;;16.96;94.56
68994;BME280;56054;50.968;5.816;2023-07-13T05:17:35;100811.84;;;16.93;94.34
68994;BME280;56054;50.968;5.816;2023-07-13T05:20:42;100807.13;;;16.84;95.01
68994;BME280;56054;50.968;5.816;2023-07-13T05:23:49;100811.72;;;16.90;94.63
68994;BME280;56054;50.968;5.816;2023-07-13T05:26:56;100814.22;;;16.87;95.46
68994;BME280;56054;50.968;5.816;2023-07-13T05:30:03;100816.13;;;16.91;95.23
68994;BME280;56054;50.968;5.816;2023-07-13T05:33:10;100820.50;;;16.69;96.02
68994;BME280;56054;50.968;5.816;2023-07-13T05:36:17;100821.63;;;16.97;95.06
68994;BME280;56054;50.968;5.816;2023-07-13T05:39:24;100813.69;;;16.96;95.14
68994;BME280;56054;50.968;5.816;2023-07-13T05:42:31;100818.19;;;16.77;96.05
68994;BME280;56054;50.968;5.816;2023-07-13T05:45:38;100824.59;;;16.84;96.25
68994;BME280;56054;50.968;5.816;2023-07-13T05:48:45;100831.88;;;16.91;96.38
68994;BME280;56054;50.968;5.816;2023-07-13T05:51:54;100827.88;;;17.01;96.34
68994;BME280;56054;50.968;5.816;2023-07-13T05:55:01;100829.03;;;17.07;96.48
68994;BME280;56054;50.968;5.816;2023-07-13T05:58:08;100837.00;;;17.10;96.28
68994;BME280;56054;50.968;5.816;2023-07-13T06:01:15;100827.28;;;17.08;97.05
68994;BME280;56054;50.968;5.816;2023-07-13T06:04:22;100828.03;;;17.28;95.98
68994;BME280;56054;50.968;5.816;2023-07-13T06:07:29;100836.97;;;17.33;96.34
68994;BME280;56054;50.968;5.816;2023-07-13T06:10:36;100834.53;;;17.38;96.50
68994;BME280;56054;50.968;5.816;2023-07-13T06:13:43;100846.25;;;17.47;96.45
68994;BME280;56054;50.968;5.816;2023-07-13T06:16:50;100846.69;;;17.36;97.25
68994;BME280;56054;50.968;5.816;2023-07-13T06:19:57;100851.50;;;17.23;97.70
68994;BME280;56054;50.968;5.816;2023-07-13T06:23:04;100842.63;;;17.20;98.57
68994;BME280;56054;50.968;5.816;2023-07-13T06:26:11;100856.72;;;17.22;99.23
68994;BME280;56054;50.968;5.816;2023-07-13T06:29:18;100864.31;;;17.16;98.55
68994;BME280;56054;50.968;5.816;2023-07-13T06:32:25;100870.25;;;17.10;99.56
68994;BME280;56054;50.968;5.816;2023-07-13T06:35:32;100870.72;;;17.22;99.43
68994;BME280;56054;50.968;5.816;2023-07-13T06:38:41;100872.00;;;17.56;98.27
68994;BME280;56054;50.968;5.816;2023-07-13T06:41:48;100868.56;;;17.35;99.26
68994;BME280;56054;50.968;5.816;2023-07-13T06:44:55;100870.50;;;17.40;99.41
68994;BME280;56054;50.968;5.816;2023-07-13T06:48:04;100871.69;;;17.24;99.90
68994;BME280;56054;50.968;5.816;2023-07-13T06:51:11;100868.94;;;17.45;99.41
68994;BME280;56054;50.968;5.816;2023-07-13T06:54:18;100883.59;;;17.39;99.21
68994;BME280;56054;50.968;5.816;2023-07-13T06:57:25;100884.28;;;17.57;98.72
68994;BME280;56054;50.968;5.816;2023-07-13T07:00:32;100880.06;;;17.61;99.02
68994;BME280;56054;50.968;5.816;2023-07-13T07:03:39;100877.81;;;17.71;98.33
68994;BME280;56054;50.968;5.816;2023-07-13T07:06:46;100886.34;;;17.88;97.81
68994;BME280;56054;50.968;5.816;2023-07-13T07:09:53;100884.53;;;17.87;98.19
68994;BME280;56054;50.968;5.816;2023-07-13T07:13:00;100884.75;;;17.93;97.39
68994;BME280;56054;50.968;5.816;2023-07-13T07:16:10;100892.03;;;18.01;96.87
68994;BME280;56054;50.968;5.816;2023-07-13T07:19:17;100896.41;;;18.00;97.12
68994;BME280;56054;50.968;5.816;2023-07-13T07:22:26;100892.91;;;18.01;97.10
68994;BME280;56054;50.968;5.816;2023-07-13T07:25:33;100903.13;;;18.17;96.59
68994;BME280;56054;50.968;5.816;2023-07-13T07:28:40;100906.84;;;17.99;96.69
68994;BME280;56054;50.968;5.816;2023-07-13T07:31:47;100902.66;;;18.04;96.89
68994;BME280;56054;50.968;5.816;2023-07-13T07:34:59;100904.66;;;18.11;96.25
68994;BME280;56054;50.968;5.816;2023-07-13T07:38:09;100912.16;;;18.00;96.64
68994;BME280;56054;50.968;5.816;2023-07-13T07:41:16;100912.63;;;18.14;95.85
68994;BME280;56054;50.968;5.816;2023-07-13T07:44:23;100908.97;;;18.09;96.08
68994;BME280;56054;50.968;5.816;2023-07-13T07:47:30;100911.59;;;18.09;96.04
68994;BME280;56054;50.968;5.816;2023-07-13T07:50:37;100914.16;;;18.31;95.10
68994;BME280;56054;50.968;5.816;2023-07-13T07:53:44;100919.84;;;18.44;94.84
68994;BME280;56054;50.968;5.816;2023-07-13T07:56:51;100917.44;;;18.26;95.12
68994;BME280;56054;50.968;5.816;2023-07-13T07:59:58;100920.06;;;18.26;95.46
68994;BME280;56054;50.968;5.816;2023-07-13T08:03:14;100925.97;;;18.44;94.60
68994;BME280;56054;50.968;5.816;2023-07-13T08:06:21;100919.19;;;18.51;94.19
68994;BME280;56054;50.968;5.816;2023-07-13T08:09:28;100915.06;;;18.59;93.32
68994;BME280;56054;50.968;5.816;2023-07-13T08:12:39;100911.72;;;18.63;93.50
68994;BME280;56054;50.968;5.816;2023-07-13T08:15:46;100914.59;;;18.45;93.45
68994;BME280;56054;50.968;5.816;2023-07-13T08:18:53;100916.56;;;18.51;93.22
68994;BME280;56054;50.968;5.816;2023-07-13T08:22:00;100917.06;;;18.66;92.79
68994;BME280;56054;50.968;5.816;2023-07-13T08:25:07;100920.66;;;18.68;92.46
68994;BME280;56054;50.968;5.816;2023-07-13T08:28:14;100917.00;;;18.65;92.39
68994;BME280;56054;50.968;5.816;2023-07-13T08:31:21;100910.00;;;18.91;92.08
68994;BME280;56054;50.968;5.816;2023-07-13T08:34:28;100911.03;;;18.96;91.43
68994;BME280;56054;50.968;5.816;2023-07-13T08:37:35;100914.91;;;19.07;90.96
68994;BME280;56054;50.968;5.816;2023-07-13T08:40:42;100907.84;;;19.06;90.22
68994;BME280;56054;50.968;5.816;2023-07-13T08:43:52;100910.66;;;19.41;88.58
68994;BME280;56054;50.968;5.816;2023-07-13T08:47:08;100905.78;;;19.53;88.40
68994;BME280;56054;50.968;5.816;2023-07-13T08:50:19;100912.03;;;19.87;85.83
68994;BME280;56054;50.968;5.816;2023-07-13T08:53:34;100908.56;;;20.21;84.58
68994;BME280;56054;50.968;5.816;2023-07-13T08:56:45;100906.63;;;20.47;83.34
68994;BME280;56054;50.968;5.816;2023-07-13T08:59:52;100903.28;;;20.55;82.50
68994;BME280;56054;50.968;5.816;2023-07-13T09:03:00;100905.72;;;20.80;81.85
68994;BME280;56054;50.968;5.816;2023-07-13T09:06:09;100902.00;;;21.10;80.05
68994;BME280;56054;50.968;5.816;2023-07-13T09:09:33;100911.47;;;21.02;78.77
68994;BME280;56054;50.968;5.816;2023-07-13T09:16:09;100900.19;;;21.07;78.30
68994;BME280;56054;50.968;5.816;2023-07-13T09:19:28;100897.13;;;21.28;76.89
68994;BME280;56054;50.968;5.816;2023-07-13T09:22:37;100903.69;;;21.44;75.56
68994;BME280;56054;50.968;5.816;2023-07-13T09:25:46;100902.75;;;21.42;75.74
68994;BME280;56054;50.968;5.816;2023-07-13T09:28:57;100901.88;;;21.42;76.01
68994;BME280;56054;50.968;5.816;2023-07-13T09:32:07;100900.72;;;21.71;75.21
68994;BME280;56054;50.968;5.816;2023-07-13T09:35:21;100896.91;;;22.02;74.62
68994;BME280;56054;50.968;5.816;2023-07-13T09:38:30;100895.84;;;21.93;74.78
68994;BME280;56054;50.968;5.816;2023-07-13T09:41:53;100897.13;;;21.69;74.62
68994;BME280;56054;50.968;5.816;2023-07-13T09:45:02;100904.53;;;21.86;72.99
68994;BME280;56054;50.968;5.816;2023-07-13T09:48:17;100903.94;;;22.00;72.20
68994;BME280;56054;50.968;5.816;2023-07-13T09:51:24;100906.41;;;21.11;73.05
68994;BME280;56054;50.968;5.816;2023-07-13T09:54:34;100906.88;;;21.31;73.88
68994;BME280;56054;50.968;5.816;2023-07-13T09:57:46;100916.22;;;21.15;73.53
68994;BME280;56054;50.968;5.816;2023-07-13T10:01:02;100912.97;;;21.66;72.38
68994;BME280;56054;50.968;5.816;2023-07-13T10:04:13;100917.06;;;21.96;69.92
68994;BME280;56054;50.968;5.816;2023-07-13T10:07:22;100913.38;;;22.32;68.61
68994;BME280;56054;50.968;5.816;2023-07-13T10:10:29;100919.53;;;22.84;66.25
68994;BME280;56054;50.968;5.816;2023-07-13T10:13:40;100921.50;;;22.42;67.01
68994;BME280;56054;50.968;5.816;2023-07-13T10:16:49;100918.75;;;22.38;66.61
68994;BME280;56054;50.968;5.816;2023-07-13T10:20:05;100924.66;;;21.79;68.35
68994;BME280;56054;50.968;5.816;2023-07-13T10:23:15;100933.13;;;21.61;68.26
68994;BME280;56054;50.968;5.816;2023-07-13T10:26:30;100927.22;;;21.74;68.34
68994;BME280;56054;50.968;5.816;2023-07-13T10:29:43;100928.56;;;21.54;68.17
68994;BME280;56054;50.968;5.816;2023-07-13T10:32:52;100932.06;;;21.53;68.90
68994;BME280;56054;50.968;5.816;2023-07-13T10:36:33;100935.69;;;21.58;68.51
68994;BME280;56054;50.968;5.816;2023-07-13T10:39:40;100933.38;;;21.75;67.69
68994;BME280;56054;50.968;5.816;2023-07-13T10:42:49;100924.53;;;21.71;67.36
68994;BME280;56054;50.968;5.816;2023-07-13T10:45:59;100925.56;;;21.79;68.19
68994;BME280;56054;50.968;5.816;2023-07-13T10:49:07;100927.94;;;21.66;68.19
68994;BME280;56054;50.968;5.816;2023-07-13T10:52:40;100934.41;;;21.82;67.73
68994;BME280;56054;50.968;5.816;2023-07-13T11:02:26;100935.53;;;22.37;65.25
68994;BME280;56054;50.968;5.816;2023-07-13T11:05:33;100923.06;;;22.83;64.07
68994;BME280;56054;50.968;5.816;2023-07-13T11:11:56;100931.66;;;23.23;61.52
68994;BME280;56054;50.968;5.816;2023-07-13T11:15:11;100923.81;;;23.29;61.87
68994;BME280;56054;50.968;5.816;2023-07-13T11:18:23;100931.31;;;23.01;59.64
68994;BME280;56054;50.968;5.816;2023-07-13T11:21:30;100922.03;;;22.75;59.39
68994;BME280;56054;50.968;5.816;2023-07-13T11:28:37;100923.53;;;23.75;57.59
68994;BME280;56054;50.968;5.816;2023-07-13T11:31:55;100919.16;;;23.80;57.83
68994;BME280;56054;50.968;5.816;2023-07-13T11:35:03;100911.03;;;23.66;56.34
68994;BME280;56054;50.968;5.816;2023-07-13T11:38:37;100919.22;;;23.19;57.37
68994;BME280;56054;50.968;5.816;2023-07-13T11:41:55;100917.72;;;23.38;57.45
68994;BME280;56054;50.968;5.816;2023-07-13T11:45:19;100922.22;;;24.12;56.73
68994;BME280;56054;50.968;5.816;2023-07-13T11:48:28;100919.38;;;23.95;54.31
68994;BME280;56054;50.968;5.816;2023-07-13T11:51:36;100915.06;;;24.08;53.90
68994;BME280;56054;50.968;5.816;2023-07-13T11:54:49;100917.59;;;23.96;55.95
68994;BME280;56054;50.968;5.816;2023-07-13T11:57:58;100930.91;;;23.97;55.13
68994;BME280;56054;50.968;5.816;2023-07-13T12:01:24;100914.81;;;23.83;55.84
68994;BME280;56054;50.968;5.816;2023-07-13T12:04:34;100919.56;;;24.12;55.67
68994;BME280;56054;50.968;5.816;2023-07-13T12:07:41;100922.38;;;24.30;54.06
68994;BME280;56054;50.968;5.816;2023-07-13T12:10:57;100942.84;;;24.41;53.33
68994;BME280;56054;50.968;5.816;2023-07-13T12:14:04;100924.25;;;24.39;54.21
68994;BME280;56054;50.968;5.816;2023-07-13T12:17:16;100920.19;;;24.78;53.73
68994;BME280;56054;50.968;5.816;2023-07-13T12:20:35;100917.81;;;24.16;54.87
68994;BME280;56054;50.968;5.816;2023-07-13T12:23:44;100925.56;;;23.96;52.86
68994;BME280;56054;50.968;5.816;2023-07-13T12:27:02;100923.94;;;24.07;53.60
68994;BME280;56054;50.968;5.816;2023-07-13T12:30:33;100930.72;;;24.66;53.87
68994;BME280;56054;50.968;5.816;2023-07-13T12:33:40;100930.75;;;24.69;51.85
68994;BME280;56054;50.968;5.816;2023-07-13T12:36:49;100927.53;;;24.12;51.90
68994;BME280;56054;50.968;5.816;2023-07-13T12:39:57;100927.53;;;24.15;53.50
68994;BME280;56054;50.968;5.816;2023-07-13T12:43:11;100922.44;;;24.37;51.95
68994;BME280;56054;50.968;5.816;2023-07-13T12:46:20;100918.16;;;24.49;50.33
68994;BME280;56054;50.968;5.816;2023-07-13T12:49:30;100928.19;;;24.83;50.63
68994;BME280;56054;50.968;5.816;2023-07-13T12:52:37;100921.09;;;24.85;50.65
68994;BME280;56054;50.968;5.816;2023-07-13T12:59:00;100908.72;;;24.84;49.42
68994;BME280;56054;50.968;5.816;2023-07-13T13:02:30;100908.00;;;25.09;49.73
68994;BME280;56054;50.968;5.816;2023-07-13T13:05:37;100911.22;;;24.65;47.85
68994;BME280;56054;50.968;5.816;2023-07-13T13:08:52;100897.25;;;24.97;47.38
68994;BME280;56054;50.968;5.816;2023-07-13T13:11:59;100903.84;;;25.54;46.56
68994;BME280;56054;50.968;5.816;2023-07-13T13:15:07;100914.28;;;25.17;45.49
68994;BME280;56054;50.968;5.816;2023-07-13T13:18:19;100903.66;;;25.20;45.95
68994;BME280;56054;50.968;5.816;2023-07-13T13:21:26;100912.31;;;24.90;45.97
68994;BME280;56054;50.968;5.816;2023-07-13T13:24:33;100902.41;;;24.69;46.47
68994;BME280;56054;50.968;5.816;2023-07-13T13:27:41;100905.94;;;24.70;47.15
68994;BME280;56054;50.968;5.816;2023-07-13T13:30:50;100909.56;;;24.78;48.17
68994;BME280;56054;50.968;5.816;2023-07-13T13:33:57;100918.84;;;24.33;48.66
68994;BME280;56054;50.968;5.816;2023-07-13T13:40:25;100909.50;;;23.83;49.00
68994;BME280;56054;50.968;5.816;2023-07-13T13:43:32;100924.13;;;24.28;48.74
68994;BME280;56054;50.968;5.816;2023-07-13T13:46:39;100911.09;;;23.72;48.37
68994;BME280;56054;50.968;5.816;2023-07-13T13:49:46;100920.34;;;24.06;48.03
68994;BME280;56054;50.968;5.816;2023-07-13T13:52:53;100915.00;;;24.02;47.66
68994;BME280;56054;50.968;5.816;2023-07-13T13:56:01;100921.16;;;23.99;47.78
68994;BME280;56054;50.968;5.816;2023-07-13T13:59:08;100914.03;;;23.93;47.75
68994;BME280;56054;50.968;5.816;2023-07-13T14:02:28;100925.19;;;23.66;48.92
68994;BME280;56054;50.968;5.816;2023-07-13T14:05:36;100927.13;;;23.78;48.78
68994;BME280;56054;50.968;5.816;2023-07-13T14:08:43;100932.97;;;23.54;49.96
68994;BME280;56054;50.968;5.816;2023-07-13T14:11:51;100937.59;;;23.69;50.18
68994;BME280;56054;50.968;5.816;2023-07-13T14:14:58;100954.34;;;23.04;55.32
68994;BME280;56054;50.968;5.816;2023-07-13T14:18:08;100969.06;;;22.36;60.00
68994;BME280;56054;50.968;5.816;2023-07-13T14:21:18;100968.66;;;22.18;60.97
68994;BME280;56054;50.968;5.816;2023-07-13T14:24:25;100962.63;;;22.23;62.22
68994;BME280;56054;50.968;5.816;2023-07-13T14:27:32;100976.94;;;21.91;63.76
68994;BME280;56054;50.968;5.816;2023-07-13T14:30:39;100980.47;;;21.90;64.56
68994;BME280;56054;50.968;5.816;2023-07-13T14:33:46;100990.00;;;21.83;64.60
68994;BME280;56054;50.968;5.816;2023-07-13T14:36:53;100991.03;;;21.50;66.59
68994;BME280;56054;50.968;5.816;2023-07-13T14:40:00;100989.50;;;21.60;66.08
68994;BME280;56054;50.968;5.816;2023-07-13T14:43:11;100999.91;;;21.16;67.14
68994;BME280;56054;50.968;5.816;2023-07-13T14:49:39;100996.84;;;21.35;66.54
68994;BME280;56054;50.968;5.816;2023-07-13T14:52:47;100997.97;;;21.09;67.20
68994;BME280;56054;50.968;5.816;2023-07-13T14:56:01;100992.53;;;21.03;67.11
68994;BME280;56054;50.968;5.816;2023-07-13T14:59:08;100986.09;;;21.28;66.54
68994;BME280;56054;50.968;5.816;2023-07-13T15:02:36;100983.16;;;21.15;66.05
68994;BME280;56054;50.968;5.816;2023-07-13T15:05:44;100978.91;;;21.22;66.73
68994;BME280;56054;50.968;5.816;2023-07-13T15:08:51;100979.97;;;21.30;65.03
68994;BME280;56054;50.968;5.816;2023-07-13T15:11:58;100981.19;;;21.43;63.95
68994;BME280;56054;50.968;5.816;2023-07-13T15:15:05;100980.84;;;21.29;64.30
68994;BME280;56054;50.968;5.816;2023-07-13T15:18:14;100973.09;;;21.37;62.77
68994;BME280;56054;50.968;5.816;2023-07-13T15:21:23;100984.81;;;21.47;62.28
68994;BME280;56054;50.968;5.816;2023-07-13T15:24:31;100982.06;;;21.42;61.87
68994;BME280;56054;50.968;5.816;2023-07-13T15:27:38;100984.88;;;21.50;61.33
68994;BME280;56054;50.968;5.816;2023-07-13T15:30:47;100965.75;;;21.62;61.30
68994;BME280;56054;50.968;5.816;2023-07-13T15:33:57;100963.59;;;21.45;60.91
68994;BME280;56054;50.968;5.816;2023-07-13T15:37:14;100971.34;;;21.77;60.48
68994;BME280;56054;50.968;5.816;2023-07-13T15:40:23;100954.34;;;22.08;59.30
68994;BME280;56054;50.968;5.816;2023-07-13T15:43:32;100966.78;;;22.56;58.02
68994;BME280;56054;50.968;5.816;2023-07-13T15:46:39;100954.44;;;22.58;57.17
68994;BME280;56054;50.968;5.816;2023-07-13T15:49:53;100959.84;;;22.64;58.38
68994;BME280;56054;50.968;5.816;2023-07-13T15:53:00;100959.34;;;22.37;58.33
68994;BME280;56054;50.968;5.816;2023-07-13T15:56:25;100951.72;;;22.54;57.50
68994;BME280;56054;50.968;5.816;2023-07-13T15:59:33;100956.31;;;22.64;57.54
68994;BME280;56054;50.968;5.816;2023-07-13T16:02:40;100956.63;;;22.84;57.61
68994;BME280;56054;50.968;5.816;2023-07-13T16:05:47;100946.06;;;22.85;57.50
68994;BME280;56054;50.968;5.816;2023-07-13T16:08:56;100944.94;;;23.24;56.86
68994;BME280;56054;50.968;5.816;2023-07-13T16:12:12;100940.84;;;23.46;57.06
68994;BME280;56054;50.968;5.816;2023-07-13T16:15:20;100939.13;;;23.52;55.82
68994;BME280;56054;50.968;5.816;2023-07-13T16:18:27;100937.75;;;23.80;54.67
68994;BME280;56054;50.968;5.816;2023-07-13T16:21:40;100930.53;;;23.72;54.19
68994;BME280;56054;50.968;5.816;2023-07-13T16:24:48;100929.75;;;23.77;54.19
68994;BME280;56054;50.968;5.816;2023-07-13T16:27:56;100932.56;;;23.87;53.25
68994;BME280;56054;50.968;5.816;2023-07-13T16:31:02;100930.72;;;23.83;53.04
68994;BME280;56054;50.968;5.816;2023-07-13T16:34:09;100936.03;;;23.85;52.61
68994;BME280;56054;50.968;5.816;2023-07-13T16:37:18;100929.94;;;23.93;51.74
68994;BME280;56054;50.968;5.816;2023-07-13T16:40:28;100938.59;;;23.77;52.21
68994;BME280;56054;50.968;5.816;2023-07-13T16:43:36;100935.97;;;23.79;51.68
68994;BME280;56054;50.968;5.816;2023-07-13T16:46:42;100938.69;;;23.21;52.19
68994;BME280;56054;50.968;5.816;2023-07-13T16:49:49;100938.50;;;23.08;53.67
68994;BME280;56054;50.968;5.816;2023-07-13T16:52:56;100940.41;;;23.19;54.83
68994;BME280;56054;50.968;5.816;2023-07-13T16:56:14;100940.50;;;23.22;54.42
68994;BME280;56054;50.968;5.816;2023-07-13T16:59:23;100945.00;;;23.29;54.57